Time;durP1;ratioP1;P1;durP2;ratioP2;P2;SDS_P1;SDS_P2;PMS_P1;PMS_P2;Temp;Humidity;BMP_temperature;BMP_pressure;BME280_temperature;BME280_humidity;BME280_pressure;Samples;Min_cycle;Max_cycle;Signal;HPM_P1;HPM_P2
2022/01/06 00:00:07;;;;;;;7.20;1.45;;;2.90;99.90;;;;;;4974966;28;20448;-80
2022/01/06 00:02:33;;;;;;;11.00;1.55;;;3.00;99.90;;;;;;4974696;28;20138;-80
2022/01/06 00:04:58;;;;;;;8.02;1.38;;;3.00;99.90;;;;;;4974982;28;20125;-80
2022/01/06 00:07:24;;;;;;;10.93;1.42;;;3.10;99.90;;;;;;4974618;28;20039;-80
2022/01/06 00:09:50;;;;;;;11.85;1.92;;;3.20;99.90;;;;;;4974499;28;20501;-79
2022/01/06 00:12:19;;;;;;;15.20;2.20;;;3.30;99.90;;;;;;4974571;28;20039;-80
2022/01/06 00:15:03;;;;;;;9.00;1.60;;;3.40;99.90;;;;;;4974307;28;20468;-80
2022/01/06 00:18:39;;;;;;;8.70;1.92;;;3.40;99.90;;;;;;4974362;28;20497;-80
2022/01/06 00:26:19;;;;;;;8.77;1.60;;;3.40;99.90;;;;;;4896099;29;20045;-80
2022/01/06 00:28:45;;;;;;;13.13;1.65;;;3.40;99.90;;;;;;4895798;29;20045;-79
2022/01/06 00:31:10;;;;;;;9.27;2.42;;;3.50;99.90;;;;;;4895783;29;20064;-83
2022/01/06 00:33:36;;;;;;;7.53;1.55;;;3.60;99.90;;;;;;4895795;29;20044;-83
2022/01/06 00:36:02;;;;;;;9.55;1.70;;;3.60;99.90;;;;;;4895912;29;20052;-82
2022/01/06 00:38:28;;;;;;;16.35;2.03;;;3.60;99.90;;;;;;4880210;29;20084;-83
2022/01/06 00:40:55;;;;;;;13.10;2.03;;;3.50;99.90;;;;;;4895794;29;20047;-82
2022/01/06 00:43:20;;;;;;;13.50;1.85;;;3.50;99.90;;;;;;4895901;29;20061;-79
2022/01/06 00:45:46;;;;;;;12.98;2.55;;;3.40;99.90;;;;;;4879745;29;20439;-83
2022/01/06 00:48:12;;;;;;;9.48;1.40;;;3.40;99.90;;;;;;4880059;29;20056;-81
2022/01/06 00:50:42;;;;;;;8.23;1.55;;;3.40;99.90;;;;;;4879898;29;20086;-79
2022/01/06 00:53:08;;;;;;;11.30;1.50;;;3.30;99.90;;;;;;4895485;29;20055;-82
2022/01/06 00:55:35;;;;;;;11.10;1.90;;;3.30;99.90;;;;;;4895306;29;20068;-80
2022/01/06 00:58:01;;;;;;;16.88;2.03;;;3.20;99.90;;;;;;4966019;28;20099;-81
2022/01/06 01:00:31;;;;;;;11.35;1.40;;;3.10;99.90;;;;;;4973844;28;20118;-80
2022/01/06 01:02:57;;;;;;;8.27;1.45;;;3.10;99.90;;;;;;4973684;28;20058;-80
2022/01/06 01:05:23;;;;;;;10.13;1.27;;;3.10;99.90;;;;;;4973509;28;20397;-80
2022/01/06 01:07:49;;;;;;;15.05;2.20;;;3.10;99.90;;;;;;4956599;28;20049;-80
2022/01/06 01:10:15;;;;;;;11.05;1.40;;;3.10;99.90;;;;;;4973903;28;20074;-79
2022/01/06 01:12:46;;;;;;;9.60;2.38;;;3.10;99.90;;;;;;4956650;28;20042;-78
2022/01/06 01:15:19;;;;;;;11.75;1.65;;;3.10;99.90;;;;;;4973805;28;20039;-79
2022/01/06 01:17:46;;;;;;;13.93;1.50;;;3.10;99.90;;;;;;4973553;28;20417;-81
2022/01/06 01:20:11;;;;;;;9.77;1.48;;;3.30;99.90;;;;;;4976519;28;20055;-79
2022/01/06 01:22:37;;;;;;;13.50;1.77;;;3.00;99.90;;;;;;4977688;28;20050;-77
2022/01/06 01:25:03;;;;;;;12.73;1.95;;;3.00;99.90;;;;;;4978114;28;20046;-79
2022/01/06 01:27:34;;;;;;;9.00;1.77;;;3.00;99.90;;;;;;4978085;28;20070;-79
2022/01/06 01:30:09;;;;;;;8.60;1.40;;;3.00;99.90;;;;;;4961370;28;20125;-80
2022/01/06 01:32:37;;;;;;;10.85;1.80;;;2.90;99.90;;;;;;4960539;28;20105;-79
2022/01/06 01:35:04;;;;;;;11.07;1.90;;;2.90;99.90;;;;;;4977710;28;20497;-80
2022/01/06 01:37:31;;;;;;;13.00;1.80;;;2.80;99.90;;;;;;4977857;28;20051;-78
2022/01/06 01:39:58;;;;;;;8.93;1.40;;;2.80;99.90;;;;;;4977999;28;20604;-79
2022/01/06 01:42:25;;;;;;;9.45;2.00;;;2.70;99.90;;;;;;4977780;28;20039;-80
2022/01/06 01:44:52;;;;;;;10.95;1.85;;;2.60;99.90;;;;;;4978052;28;20039;-79
2022/01/06 01:47:29;;;;;;;12.75;1.55;;;2.60;99.90;;;;;;4968231;28;20042;-80
2022/01/06 01:50:09;;;;;;;9.05;1.55;;;2.50;99.90;;;;;;4984243;28;20047;-79
2022/01/06 01:52:35;;;;;;;8.77;1.88;;;2.40;99.90;;;;;;4978838;28;20463;-80
2022/01/06 01:55:01;;;;;;;11.88;1.60;;;2.30;99.90;;;;;;4978288;28;20057;-79
2022/01/06 01:57:27;;;;;;;12.50;1.73;;;2.20;99.90;;;;;;4977414;28;20396;-78
2022/01/06 01:59:53;;;;;;;7.10;1.40;;;2.20;99.90;;;;;;4977382;28;20439;-79
2022/01/06 02:02:18;;;;;;;12.38;1.73;;;2.10;99.90;;;;;;4976886;28;20046;-80
2022/01/06 02:04:44;;;;;;;10.85;2.28;;;2.10;99.90;;;;;;4977067;28;20062;-79
2022/01/06 02:07:09;;;;;;;7.78;1.52;;;2.00;99.90;;;;;;4977220;28;20130;-79
2022/01/06 02:09:35;;;;;;;9.63;1.70;;;1.90;99.90;;;;;;4976770;28;20038;-79
2022/01/06 02:12:01;;;;;;;12.68;1.58;;;1.80;99.90;;;;;;4959193;28;20105;-79
2022/01/06 02:14:27;;;;;;;9.80;1.85;;;1.80;99.90;;;;;;4943315;28;20069;-80
2022/01/06 02:16:54;;;;;;;8.30;1.30;;;1.70;99.90;;;;;;4976770;28;20101;-80
2022/01/06 02:19:20;;;;;;;8.00;1.50;;;1.60;99.90;;;;;;4977047;28;20054;-81
2022/01/06 02:21:46;;;;;;;15.68;1.90;;;1.60;99.90;;;;;;4959370;28;20045;-80
2022/01/06 02:24:11;;;;;;;10.25;1.40;;;1.60;99.90;;;;;;4976745;28;20049;-80
2022/01/06 02:26:37;;;;;;;10.02;1.92;;;1.50;99.90;;;;;;4976522;28;20047;-79
2022/01/06 02:29:03;;;;;;;9.95;1.55;;;2.70;99.90;;;;;;4976276;28;20043;-79
2022/01/06 02:31:42;;;;;;;9.50;1.33;;;1.50;99.90;;;;;;4957730;28;20050;-79
2022/01/06 02:34:08;;;;;;;10.98;1.58;;;1.40;99.90;;;;;;4976666;28;20133;-80
2022/01/06 02:36:34;;;;;;;9.52;1.17;;;1.40;99.90;;;;;;4976438;28;20051;-81
2022/01/06 02:39:00;;;;;;;10.75;1.70;;;1.40;99.90;;;;;;4976314;28;20050;-79
2022/01/06 02:41:26;;;;;;;13.07;2.30;;;1.40;99.90;;;;;;4976234;28;20047;-80
2022/01/06 02:43:52;;;;;;;8.13;1.75;;;2.30;99.90;;;;;;4976266;28;20056;-80
2022/01/06 02:46:17;;;;;;;9.02;1.67;;;1.50;99.90;;;;;;4958698;28;20046;-80
2022/01/06 02:48:43;;;;;;;13.02;1.30;;;1.50;99.90;;;;;;4976271;28;20173;-79
2022/01/06 02:51:08;;;;;;;10.23;1.48;;;1.50;99.90;;;;;;4976202;28;20121;-79
2022/01/06 02:53:34;;;;;;;9.20;1.98;;;1.50;99.90;;;;;;4976079;28;20047;-80
2022/01/06 02:56:00;;;;;;;13.38;1.85;;;1.80;99.90;;;;;;4976125;28;20458;-79
2022/01/06 02:58:26;;;;;;;14.00;1.92;;;1.70;99.90;;;;;;4958484;28;20046;-79
2022/01/06 03:00:52;;;;;;;15.98;1.85;;;1.80;99.90;;;;;;4976196;28;20401;-78
2022/01/06 03:03:18;;;;;;;9.48;1.67;;;1.80;99.90;;;;;;4975993;28;20039;-78
2022/01/06 03:05:44;;;;;;;8.88;1.60;;;1.90;99.90;;;;;;4976046;28;20451;-76
2022/01/06 03:08:09;;;;;;;10.70;1.52;;;1.90;99.90;;;;;;4976200;28;20034;-77
2022/01/06 03:10:38;;;;;;;8.95;1.20;;;1.90;99.90;;;;;;4976010;28;20054;-79
2022/01/06 03:13:04;;;;;;;11.70;1.40;;;1.90;99.90;;;;;;4975689;28;20396;-78
2022/01/06 03:15:30;;;;;;;8.98;2.30;;;1.90;99.90;;;;;;4975782;28;20082;-77
2022/01/06 03:17:57;;;;;;;12.30;1.73;;;1.90;99.90;;;;;;4975612;28;20082;-77
2022/01/06 03:20:25;;;;;;;12.77;1.60;;;1.80;99.90;;;;;;4958560;28;20501;-77
2022/01/06 03:22:53;;;;;;;8.80;1.80;;;1.80;99.90;;;;;;4975734;28;20038;-78
2022/01/06 03:25:19;;;;;;;8.75;1.70;;;1.80;99.90;;;;;;4975528;28;20051;-78
2022/01/06 03:27:46;;;;;;;9.63;1.27;;;1.70;99.90;;;;;;4975099;28;20501;-78
2022/01/06 03:30:14;;;;;;;11.27;2.08;;;1.80;99.90;;;;;;4975514;28;20181;-78
2022/01/06 03:32:41;;;;;;;11.10;1.75;;;1.60;99.90;;;;;;4975401;28;20082;-78
2022/01/06 03:35:09;;;;;;;6.72;1.80;;;2.40;99.90;;;;;;4975478;28;20397;-78
2022/01/06 03:37:34;;;;;;;12.45;1.90;;;1.40;99.90;;;;;;4958171;28;20396;-80
2022/01/06 03:40:05;;;;;;;10.75;1.85;;;1.30;99.90;;;;;;4941395;28;20062;-79
2022/01/06 03:42:32;;;;;;;9.45;1.80;;;1.30;99.90;;;;;;4957396;28;20105;-79
2022/01/06 03:45:01;;;;;;;10.80;1.55;;;1.70;99.90;;;;;;4975267;28;20146;-79
2022/01/06 03:47:26;;;;;;;5.85;1.50;;;1.20;99.90;;;;;;4975272;28;20374;-80
2022/01/06 03:49:52;;;;;;;10.70;1.83;;;1.10;99.90;;;;;;4975316;28;20066;-81
2022/01/06 03:52:18;;;;;;;8.13;1.98;;;1.00;99.90;;;;;;4957675;28;20043;-79
2022/01/06 03:54:43;;;;;;;10.57;1.70;;;1.00;99.90;;;;;;4957601;28;20047;-78
2022/01/06 03:57:09;;;;;;;11.38;1.92;;;1.00;99.90;;;;;;4974875;28;20043;-79
2022/01/06 03:59:35;;;;;;;6.22;1.45;;;1.00;99.90;;;;;;4974853;28;20081;-80
2022/01/06 04:02:02;;;;;;;10.43;1.70;;;1.00;99.90;;;;;;4957280;28;20055;-79
2022/01/06 04:04:28;;;;;;;10.02;1.38;;;0.90;99.90;;;;;;4974909;28;20085;-80
2022/01/06 04:06:54;;;;;;;8.10;1.42;;;0.90;99.90;;;;;;4941177;28;20122;-79
2022/01/06 04:09:21;;;;;;;11.55;1.70;;;0.90;99.90;;;;;;4957058;28;20043;-78
2022/01/06 04:11:46;;;;;;;4.93;1.15;;;0.90;99.90;;;;;;4941574;28;20068;-79
2022/01/06 04:14:12;;;;;;;3.90;1.02;;;0.90;99.90;;;;;;4974487;28;20461;-79
2022/01/06 04:16:39;;;;;;;5.38;1.02;;;0.80;99.90;;;;;;4975652;28;20038;-80
2022/01/06 04:19:06;;;;;;;4.82;1.05;;;0.80;99.90;;;;;;4974530;28;20058;-79
2022/01/06 04:21:32;;;;;;;8.43;1.10;;;0.70;99.90;;;;;;4974660;28;20047;-78
2022/01/06 04:23:58;;;;;;;5.88;1.55;;;0.70;99.90;;;;;;4974363;28;20054;-78
2022/01/06 04:26:24;;;;;;;4.93;1.20;;;0.60;99.90;;;;;;4974520;28;20493;-80
2022/01/06 04:28:49;;;;;;;3.05;0.90;;;0.50;99.90;;;;;;4974186;28;20034;-79
2022/01/06 04:31:15;;;;;;;2.95;1.05;;;0.50;99.90;;;;;;4974095;28;20046;-79
2022/01/06 04:33:41;;;;;;;3.28;0.90;;;0.50;99.90;;;;;;4956880;28;20106;-79
2022/01/06 04:36:06;;;;;;;3.55;1.75;;;0.40;99.90;;;;;;4956868;28;20063;-80
2022/01/06 04:38:33;;;;;;;6.65;1.13;;;0.40;99.90;;;;;;4974121;28;20141;-79
2022/01/06 04:40:59;;;;;;;8.32;1.10;;;0.40;99.90;;;;;;4974164;28;20051;-79
2022/01/06 04:43:25;;;;;;;6.85;1.42;;;1.20;99.90;;;;;;4974046;28;20043;-80
2022/01/06 04:45:51;;;;;;;7.30;1.00;;;0.30;99.90;;;;;;4974204;28;20049;-80
2022/01/06 04:48:17;;;;;;;5.43;1.23;;;0.30;99.90;;;;;;4973656;28;20059;-80
2022/01/06 04:50:42;;;;;;;6.25;1.63;;;0.30;99.90;;;;;;4973867;28;20046;-79
2022/01/06 04:53:08;;;;;;;8.82;0.90;;;0.30;99.90;;;;;;4973618;28;20047;-79
2022/01/06 04:55:34;;;;;;;9.70;1.20;;;0.30;99.90;;;;;;4956026;28;20054;-79
2022/01/06 04:57:59;;;;;;;6.30;1.10;;;0.30;99.90;;;;;;4973706;28;20089;-78
2022/01/06 05:00:25;;;;;;;11.38;1.58;;;0.20;99.90;;;;;;4974160;28;20050;-80
2022/01/06 05:02:51;;;;;;;5.53;1.25;;;0.30;99.90;;;;;;4973751;28;20102;-79
2022/01/06 05:05:17;;;;;;;6.38;1.08;;;0.20;99.90;;;;;;4973691;28;20046;-79
2022/01/06 05:07:44;;;;;;;4.35;0.95;;;0.30;99.90;;;;;;4974187;28;20485;-79
2022/01/06 05:10:10;;;;;;;6.32;1.52;;;0.20;99.90;;;;;;4974270;28;20046;-80
2022/01/06 05:12:44;;;;;;;7.50;1.50;;;0.20;99.90;;;;;;4957546;28;20401;-79
2022/01/06 05:15:11;;;;;;;7.20;1.77;;;0.80;99.90;;;;;;4973881;28;20512;-79
2022/01/06 05:17:36;;;;;;;6.60;1.40;;;0.20;99.90;;;;;;4975615;28;20070;-79
2022/01/06 05:20:04;;;;;;;10.73;1.42;;;0.20;99.90;;;;;;4973684;28;20051;-79
2022/01/06 05:22:31;;;;;;;7.90;1.33;;;0.20;99.90;;;;;;4956431;28;20050;-79
2022/01/06 05:24:57;;;;;;;9.02;1.48;;;0.20;99.90;;;;;;4973722;28;20046;-79
2022/01/06 05:27:23;;;;;;;6.40;1.20;;;1.30;99.90;;;;;;4973005;28;20427;-79
2022/01/06 05:29:49;;;;;;;5.70;1.42;;;0.10;99.90;;;;;;4973604;28;20061;-79
2022/01/06 05:32:14;;;;;;;7.22;1.38;;;0.30;99.90;;;;;;4956620;28;20125;-80
2022/01/06 05:34:40;;;;;;;6.88;1.20;;;0.10;99.90;;;;;;4973852;28;20050;-81
2022/01/06 05:37:06;;;;;;;8.40;1.55;;;0.10;99.90;;;;;;4957057;28;20097;-79
2022/01/06 05:39:32;;;;;;;5.28;1.88;;;0.10;99.90;;;;;;4957709;28;20047;-83
2022/01/06 05:41:58;;;;;;;5.88;1.10;;;0.10;99.90;;;;;;4974881;28;20425;-79
2022/01/06 05:44:25;;;;;;;4.55;1.23;;;0.10;99.90;;;;;;4957853;28;20050;-80
2022/01/06 05:46:51;;;;;;;6.18;1.73;;;0.10;99.90;;;;;;4985302;28;20153;-81
2022/01/06 05:49:16;;;;;;;9.77;2.17;;;0.00;99.90;;;;;;4986128;28;20046;-83
2022/01/06 05:51:42;;;;;;;8.38;1.30;;;0.10;99.90;;;;;;4984049;28;20145;-81
2022/01/06 05:54:08;;;;;;;7.65;1.50;;;0.00;99.90;;;;;;4978513;28;20408;-81
2022/01/06 05:56:34;;;;;;;11.40;1.63;;;0.00;99.90;;;;;;4976226;28;20051;-80
2022/01/06 05:59:00;;;;;;;8.02;1.88;;;0.00;99.90;;;;;;4974562;28;20046;-80
2022/01/06 06:01:26;;;;;;;9.40;1.95;;;0.00;99.90;;;;;;4973813;28;20054;-80
2022/01/06 06:03:54;;;;;;;6.85;1.63;;;0.00;99.90;;;;;;4973917;28;20502;-80
2022/01/06 06:06:19;;;;;;;7.25;1.30;;;0.30;99.90;;;;;;4976333;28;20497;-80
2022/01/06 06:08:45;;;;;;;5.43;1.23;;;-0.10;99.90;;;;;;4977029;28;20054;-80
2022/01/06 06:11:10;;;;;;;9.40;1.90;;;-0.10;99.90;;;;;;4976815;28;20050;-81
2022/01/06 06:13:36;;;;;;;12.27;1.60;;;0.00;99.90;;;;;;4959611;28;20046;-80
2022/01/06 06:16:02;;;;;;;12.77;1.60;;;0.00;99.90;;;;;;4976664;28;20090;-77
2022/01/06 06:18:28;;;;;;;12.55;2.92;;;0.10;99.90;;;;;;4943608;28;20051;-78
2022/01/06 06:20:53;;;;;;;13.85;2.17;;;0.10;99.90;;;;;;4977072;28;20050;-78
2022/01/06 06:23:19;;;;;;;8.60;2.00;;;0.10;99.90;;;;;;4959591;28;20047;-77
2022/01/06 06:25:44;;;;;;;10.32;2.47;;;0.20;99.90;;;;;;4959473;28;20404;-78
2022/01/06 06:28:10;;;;;;;8.77;2.47;;;0.20;99.90;;;;;;4976564;28;20479;-77
2022/01/06 06:30:36;;;;;;;10.70;2.28;;;0.20;99.90;;;;;;4976383;28;20051;-77
2022/01/06 06:33:02;;;;;;;19.38;2.00;;;0.20;99.90;;;;;;4959590;28;20045;-80
2022/01/06 06:35:29;;;;;;;8.45;1.90;;;0.30;99.90;;;;;;4976654;28;20521;-80
2022/01/06 06:37:55;;;;;;;9.05;1.98;;;0.20;99.90;;;;;;4976579;28;20102;-80
2022/01/06 06:40:22;;;;;;;15.15;2.33;;;0.10;99.90;;;;;;4976716;28;20046;-81
2022/01/06 06:42:48;;;;;;;9.13;1.75;;;0.10;99.90;;;;;;4976416;28;20093;-78
2022/01/06 06:45:15;;;;;;;11.15;1.65;;;0.10;99.90;;;;;;4977023;28;20082;-80
2022/01/06 06:47:41;;;;;;;13.43;1.70;;;0.00;99.90;;;;;;4977337;28;20058;-78
2022/01/06 06:50:07;;;;;;;11.95;2.00;;;0.00;99.90;;;;;;4959858;28;20055;-78
2022/01/06 06:52:33;;;;;;;9.00;1.98;;;-0.10;99.90;;;;;;4979407;28;20027;-79
2022/01/06 06:54:59;;;;;;;11.32;2.05;;;-0.10;99.90;;;;;;4977997;28;20082;-77
2022/01/06 06:57:25;;;;;;;17.77;2.47;;;-0.20;99.90;;;;;;4997612;28;20027;-78
2022/01/06 06:59:50;;;;;;;14.05;2.25;;;-0.20;99.90;;;;;;4976393;28;20058;-78
2022/01/06 07:02:16;;;;;;;15.27;2.22;;;-0.20;99.90;;;;;;4976529;28;20409;-77
2022/01/06 07:04:42;;;;;;;11.20;1.83;;;-0.20;99.90;;;;;;4959106;28;20051;-77
2022/01/06 07:07:07;;;;;;;12.63;2.00;;;-0.20;99.90;;;;;;4976286;28;20571;-77
2022/01/06 07:09:33;;;;;;;14.15;2.13;;;-0.20;99.90;;;;;;4975898;28;20457;-77
2022/01/06 07:11:59;;;;;;;8.07;1.80;;;-0.20;99.90;;;;;;4975926;28;20051;-77
2022/01/06 07:14:24;;;;;;;8.55;1.65;;;-0.20;99.90;;;;;;4976098;28;20400;-77
2022/01/06 07:16:50;;;;;;;10.05;2.38;;;-0.30;99.90;;;;;;4957658;28;20098;-76
2022/01/06 07:19:16;;;;;;;14.30;2.00;;;-0.20;99.90;;;;;;4991987;28;20460;-78
2022/01/06 07:21:41;;;;;;;11.77;1.80;;;-0.30;99.90;;;;;;4995274;28;20077;-79
2022/01/06 07:24:07;;;;;;;11.05;1.25;;;-0.30;99.90;;;;;;4993760;28;20404;-76
2022/01/06 07:26:33;;;;;;;10.38;1.45;;;-0.30;99.90;;;;;;4993677;28;20066;-79
2022/01/06 07:28:58;;;;;;;7.60;1.73;;;-0.30;99.90;;;;;;4995067;28;20503;-78
2022/01/06 07:31:24;;;;;;;17.40;2.08;;;-0.30;99.90;;;;;;4994831;28;20042;-78
2022/01/06 07:33:50;;;;;;;9.45;2.60;;;-0.40;99.90;;;;;;4994914;28;20042;-78
2022/01/06 07:36:15;;;;;;;10.63;1.90;;;-0.40;99.90;;;;;;4995321;28;20042;-79
2022/01/06 07:38:41;;;;;;;15.85;2.67;;;-0.40;99.90;;;;;;4993628;28;20378;-79
2022/01/06 07:41:07;;;;;;;12.70;2.65;;;-0.40;99.90;;;;;;4994861;28;20039;-80
2022/01/06 07:43:32;;;;;;;17.70;2.47;;;-0.40;99.90;;;;;;4994867;28;20488;-76
2022/01/06 07:45:58;;;;;;;8.88;1.75;;;-0.40;99.90;;;;;;4994710;28;20053;-77
2022/01/06 07:48:36;;;;;;;12.68;2.90;;;-0.40;99.90;;;;;;4994460;28;20540;-78
2022/01/06 07:51:02;;;;;;;15.70;2.60;;;-0.50;99.90;;;;;;4994663;28;20050;-78
2022/01/06 07:53:28;;;;;;;14.70;2.53;;;-0.40;99.90;;;;;;4994605;28;20060;-78
2022/01/06 07:55:53;;;;;;;11.27;1.95;;;-0.40;99.90;;;;;;4994647;28;20042;-79
2022/01/06 07:58:19;;;;;;;16.45;2.55;;;-0.40;99.90;;;;;;4994392;28;20082;-80
2022/01/06 08:00:45;;;;;;;12.80;2.30;;;-0.40;99.90;;;;;;4994087;28;20050;-79
2022/01/06 08:03:10;;;;;;;13.75;2.65;;;-0.40;99.90;;;;;;4992997;28;20046;-78
2022/01/06 08:05:36;;;;;;;12.63;2.22;;;-0.30;99.90;;;;;;4994438;28;20470;-78
2022/01/06 08:08:02;;;;;;;17.73;4.18;;;-0.20;99.90;;;;;;4992973;28;20397;-81
2022/01/06 08:10:27;;;;;;;14.93;3.00;;;-0.10;99.90;;;;;;4994258;28;20048;-78
2022/01/06 08:12:53;;;;;;;16.05;2.78;;;-0.10;99.90;;;;;;4994182;28;20042;-79
2022/01/06 08:15:19;;;;;;;12.55;2.50;;;0.00;99.90;;;;;;4992950;28;20046;-80
2022/01/06 08:17:45;;;;;;;11.80;2.95;;;0.00;99.90;;;;;;4989609;28;20379;-79
2022/01/06 08:20:11;;;;;;;13.57;3.20;;;0.00;99.90;;;;;;4974778;28;20059;-79
2022/01/06 08:22:37;;;;;;;12.00;2.50;;;0.00;99.90;;;;;;4974282;28;20050;-81
2022/01/06 08:25:07;;;;;;;13.20;2.55;;;0.00;99.90;;;;;;4974409;28;20576;-79
2022/01/06 08:27:33;;;;;;;12.70;3.65;;;0.00;99.90;;;;;;4941159;28;20501;-79
2022/01/06 08:29:59;;;;;;;23.98;7.05;;;0.00;99.90;;;;;;4956891;28;20058;-80
2022/01/06 08:32:25;;;;;;;20.88;4.93;;;1.00;99.90;;;;;;4956765;28;20038;-80
2022/01/06 08:34:50;;;;;;;11.27;3.20;;;-0.10;99.90;;;;;;4974397;28;20457;-80
2022/01/06 08:37:17;;;;;;;18.48;3.30;;;-0.10;99.90;;;;;;4974670;28;20054;-80
2022/01/06 08:39:42;;;;;;;18.38;5.13;;;-0.10;99.90;;;;;;4974402;28;20046;-80
2022/01/06 08:42:08;;;;;;;16.95;3.80;;;-0.10;99.90;;;;;;4974343;28;20043;-80
2022/01/06 08:44:35;;;;;;;13.25;2.55;;;-0.10;99.90;;;;;;4974266;28;20470;-80
2022/01/06 08:47:01;;;;;;;13.32;2.70;;;-0.10;99.90;;;;;;4956717;28;20512;-79
2022/01/06 08:49:27;;;;;;;10.10;2.50;;;-0.10;99.90;;;;;;4974344;28;20397;-80
2022/01/06 08:51:53;;;;;;;12.15;2.25;;;0.60;99.90;;;;;;4974306;28;20130;-80
2022/01/06 08:54:19;;;;;;;11.80;2.83;;;-0.10;99.90;;;;;;4974260;28;20074;-80
2022/01/06 08:56:44;;;;;;;11.85;3.05;;;-0.10;99.90;;;;;;4973990;28;20046;-80
2022/01/06 08:59:10;;;;;;;17.33;3.20;;;-0.10;99.90;;;;;;4956807;28;20050;-80
2022/01/06 09:01:36;;;;;;;12.52;2.63;;;-0.10;99.90;;;;;;4956582;28;20039;-78
2022/01/06 09:04:02;;;;;;;15.20;2.55;;;0.00;99.90;;;;;;4956574;28;20054;-79
2022/01/06 09:06:28;;;;;;;20.73;3.22;;;0.00;99.90;;;;;;4974322;28;20031;-81
2022/01/06 09:08:54;;;;;;;17.58;2.75;;;0.00;99.90;;;;;;4942322;28;20181;-79
2022/01/06 09:11:19;;;;;;;16.65;2.17;;;0.00;99.90;;;;;;4957304;28;20129;-79
2022/01/06 09:13:45;;;;;;;12.68;2.95;;;0.10;99.90;;;;;;4957210;28;20066;-79
2022/01/06 09:16:13;;;;;;;10.18;2.10;;;0.10;99.90;;;;;;4957622;28;20050;-80
2022/01/06 09:18:39;;;;;;;13.45;2.30;;;0.10;99.90;;;;;;4975898;28;20054;-79
2022/01/06 09:21:13;;;;;;;12.93;2.60;;;0.60;99.90;;;;;;4993420;28;20046;-80
2022/01/06 09:23:39;;;;;;;13.20;2.08;;;0.20;99.90;;;;;;4992103;28;20046;-80
2022/01/06 09:26:05;;;;;;;13.00;2.20;;;0.20;99.90;;;;;;4993179;28;20042;-79
2022/01/06 09:28:30;;;;;;;13.57;2.35;;;0.30;99.90;;;;;;4993256;28;20043;-79
2022/01/06 09:30:57;;;;;;;13.48;2.83;;;0.30;99.90;;;;;;4993193;28;20050;-80
2022/01/06 09:33:23;;;;;;;15.35;2.72;;;0.40;99.90;;;;;;4991658;28;20133;-79
2022/01/06 09:35:52;;;;;;;16.52;2.83;;;0.40;99.90;;;;;;4993315;28;20457;-78
2022/01/06 09:38:19;;;;;;;16.48;3.10;;;1.30;99.90;;;;;;4992143;28;20097;-80
2022/01/06 09:40:45;;;;;;;17.00;4.28;;;0.50;99.90;;;;;;4995330;28;20081;-79
2022/01/06 09:43:14;;;;;;;15.30;2.60;;;0.60;99.90;;;;;;4997057;28;20075;-77
2022/01/06 09:45:41;;;;;;;15.75;3.42;;;0.60;99.90;;;;;;4995574;28;20547;-79
2022/01/06 09:48:08;;;;;;;13.23;3.20;;;0.70;99.90;;;;;;4996745;28;20042;-79
2022/01/06 09:50:36;;;;;;;18.77;4.15;;;0.70;99.90;;;;;;4996954;28;20050;-80
2022/01/06 09:53:02;;;;;;;13.40;2.90;;;0.80;99.90;;;;;;5002267;28;20043;-81
2022/01/06 09:55:28;;;;;;;16.25;2.75;;;0.90;99.90;;;;;;5005520;28;20093;-81
2022/01/06 09:58:01;;;;;;;15.10;2.85;;;1.00;99.90;;;;;;5000952;28;20069;-79
2022/01/06 10:00:29;;;;;;;20.27;3.13;;;1.10;99.90;;;;;;4997854;28;20042;-79
2022/01/06 10:02:58;;;;;;;17.17;3.08;;;1.10;99.90;;;;;;4979693;28;20046;-79
2022/01/06 10:05:25;;;;;;;15.07;4.05;;;1.20;99.90;;;;;;4994955;28;20054;-78
2022/01/06 10:07:54;;;;;;;17.15;2.20;;;1.20;99.90;;;;;;4996677;28;20039;-80
2022/01/06 10:10:27;;;;;;;18.83;3.45;;;1.30;99.90;;;;;;4996391;28;20141;-79
2022/01/06 10:12:58;;;;;;;19.55;3.58;;;1.40;99.90;;;;;;4996279;28;20050;-79
2022/01/06 10:15:26;;;;;;;11.70;2.47;;;1.40;99.90;;;;;;4996269;28;20471;-79
2022/01/06 10:17:52;;;;;;;20.00;3.67;;;1.50;99.90;;;;;;4994387;28;20051;-80
2022/01/06 10:20:21;;;;;;;12.30;2.58;;;1.50;99.90;;;;;;4996165;28;20137;-79
2022/01/06 10:22:53;;;;;;;17.10;2.88;;;1.50;99.90;;;;;;4996277;28;20050;-79
2022/01/06 10:25:21;;;;;;;14.73;2.85;;;1.60;99.90;;;;;;4996140;28;20381;-79
2022/01/06 10:27:49;;;;;;;15.23;2.90;;;1.60;99.90;;;;;;4995890;28;20066;-79
2022/01/06 10:30:16;;;;;;;16.80;3.03;;;1.70;99.90;;;;;;4995733;28;20058;-80
2022/01/06 10:32:42;;;;;;;16.95;3.58;;;1.70;99.90;;;;;;4994642;28;20034;-79
2022/01/06 10:35:10;;;;;;;16.05;3.30;;;2.40;99.90;;;;;;4995967;28;20519;-80
2022/01/06 10:37:44;;;;;;;17.45;2.35;;;1.70;99.90;;;;;;4995913;28;20501;-80
2022/01/06 10:40:12;;;;;;;17.88;3.45;;;1.70;99.90;;;;;;4995950;28;20078;-80
2022/01/06 10:42:41;;;;;;;20.40;2.63;;;1.60;99.90;;;;;;4994410;28;20046;-78
2022/01/06 10:45:15;;;;;;;15.45;2.70;;;2.00;99.90;;;;;;4995642;28;20112;-80
2022/01/06 10:47:40;;;;;;;16.20;2.97;;;1.60;99.90;;;;;;4995764;28;20042;-80
2022/01/06 10:50:30;;;;;;;13.02;2.88;;;1.60;99.90;;;;;;4995715;28;20396;-80
2022/01/06 10:52:57;;;;;;;18.10;2.85;;;1.70;99.90;;;;;;4994476;28;20042;-79
2022/01/06 10:55:31;;;;;;;14.75;2.80;;;1.70;99.90;;;;;;4995270;28;20046;-80
2022/01/06 10:58:00;;;;;;;20.95;3.05;;;2.00;99.90;;;;;;4995747;28;20061;-80
2022/01/06 11:00:31;;;;;;;15.50;2.63;;;1.90;99.90;;;;;;4995670;28;20038;-79
2022/01/06 11:03:13;;;;;;;15.05;2.80;;;2.00;99.90;;;;;;4994169;28;20046;-80
2022/01/06 11:05:45;;;;;;;16.73;2.70;;;2.10;99.90;;;;;;4995275;28;20042;-78
2022/01/06 11:08:12;;;;;;;16.35;2.92;;;2.20;99.90;;;;;;4995481;28;20049;-80
2022/01/06 11:10:46;;;;;;;24.95;3.13;;;2.20;99.90;;;;;;4995196;28;20054;-79
2022/01/06 11:13:11;;;;;;;18.88;3.10;;;2.30;99.90;;;;;;4995328;28;20050;-79
2022/01/06 11:15:37;;;;;;;13.15;2.45;;;2.50;99.90;;;;;;4993983;28;20492;-79
2022/01/06 11:18:05;;;;;;;20.27;2.80;;;2.50;99.90;;;;;;4988246;28;20519;-79
2022/01/06 11:20:31;;;;;;;15.73;3.22;;;2.60;99.90;;;;;;4958512;28;20401;-79
2022/01/06 11:22:59;;;;;;;21.63;4.18;;;2.70;99.90;;;;;;4975498;28;20552;-79
2022/01/06 11:25:35;;;;;;;10.27;3.30;;;3.60;99.90;;;;;;4975658;28;20084;-79
2022/01/06 11:28:03;;;;;;;15.50;2.92;;;2.90;99.90;;;;;;4975620;28;20035;-80
2022/01/06 11:30:42;;;;;;;16.42;3.17;;;3.60;99.90;;;;;;4975544;28;20054;-79
2022/01/06 11:33:09;;;;;;;16.02;2.80;;;3.00;99.90;;;;;;4975193;28;20051;-79
2022/01/06 11:35:54;;;;;;;15.23;3.40;;;3.10;99.90;;;;;;4958332;28;20145;-79
2022/01/06 11:38:26;;;;;;;18.23;2.97;;;3.30;99.90;;;;;;4975320;28;20042;-78
2022/01/06 11:41:12;;;;;;;17.13;2.75;;;3.20;99.90;;;;;;4975333;28;20407;-79
2022/01/06 11:43:40;;;;;;;15.85;2.90;;;3.30;99.90;;;;;;4975062;28;20133;-79
2022/01/06 11:46:06;;;;;;;11.77;2.42;;;3.80;99.90;;;;;;4942097;28;20058;-79
2022/01/06 11:48:31;;;;;;;18.52;3.38;;;3.50;99.90;;;;;;4975256;28;20043;-79
2022/01/06 11:50:57;;;;;;;15.63;3.60;;;3.60;99.90;;;;;;4957464;28;20421;-78
2022/01/06 11:53:32;;;;;;;18.55;2.72;;;3.60;99.90;;;;;;4975081;28;20390;-79
2022/01/06 11:55:59;;;;;;;20.25;3.67;;;3.70;99.90;;;;;;4957756;28;20042;-78
2022/01/06 11:58:25;;;;;;;24.15;3.05;;;3.80;99.90;;;;;;4974813;28;20051;-79
2022/01/06 12:00:59;;;;;;;21.33;3.08;;;3.90;99.90;;;;;;4975061;28;20090;-79
2022/01/06 12:03:44;;;;;;;16.95;2.72;;;3.90;99.90;;;;;;4957355;28;20050;-77
2022/01/06 12:06:28;;;;;;;16.90;2.67;;;4.00;99.90;;;;;;4974762;28;20050;-78
2022/01/06 12:08:54;;;;;;;21.52;3.20;;;4.10;99.90;;;;;;4974567;28;20042;-79
2022/01/06 12:11:24;;;;;;;13.00;2.60;;;4.70;99.90;;;;;;4974985;28;20409;-79
2022/01/06 12:13:52;;;;;;;15.20;3.33;;;4.20;99.90;;;;;;4974921;28;20039;-79
2022/01/06 12:16:26;;;;;;;17.63;2.97;;;4.20;99.90;;;;;;4957249;28;20050;-79
2022/01/06 12:18:52;;;;;;;19.10;2.50;;;4.20;99.90;;;;;;4974272;28;20086;-80
2022/01/06 12:21:18;;;;;;;12.63;2.75;;;4.40;99.90;;;;;;4974166;28;20148;-79
2022/01/06 12:23:45;;;;;;;14.10;2.40;;;4.30;99.90;;;;;;4941195;28;20125;-80
2022/01/06 12:26:12;;;;;;;16.35;3.15;;;4.40;99.90;;;;;;4957349;28;20042;-77
2022/01/06 12:28:48;;;;;;;13.25;2.42;;;4.40;99.90;;;;;;4957181;28;20529;-79
2022/01/06 12:31:26;;;;;;;18.02;2.55;;;4.50;99.90;;;;;;4974303;28;20101;-79
2022/01/06 12:33:58;;;;;;;13.80;3.08;;;4.60;99.90;;;;;;4974110;28;20516;-78
2022/01/06 12:36:25;;;;;;;16.35;2.38;;;4.70;99.90;;;;;;4974413;28;20617;-79
2022/01/06 12:38:51;;;;;;;14.57;2.20;;;4.60;99.90;;;;;;4974399;28;20100;-79
2022/01/06 12:41:28;;;;;;;17.05;2.80;;;4.60;99.90;;;;;;4974380;28;20464;-78
2022/01/06 12:43:55;;;;;;;18.67;2.70;;;4.70;99.90;;;;;;4974063;28;20515;-80
2022/01/06 12:46:23;;;;;;;21.73;3.42;;;4.70;99.90;;;;;;4973993;28;20509;-79
2022/01/06 12:48:54;;;;;;;18.77;3.03;;;4.70;99.90;;;;;;4973829;28;20060;-78
2022/01/06 12:51:25;;;;;;;14.25;2.72;;;4.70;99.90;;;;;;4974144;28;20058;-79
2022/01/06 12:53:58;;;;;;;14.52;2.50;;;4.80;99.90;;;;;;4940668;28;20058;-78